createdAt,value
2022-08-10T00:00:23.414Z,0.00
2022-08-10T00:01:23.438Z,0.00
2022-08-10T00:02:23.387Z,0.00
2022-08-10T00:03:23.399Z,0.00
2022-08-10T00:04:23.733Z,0.00
2022-08-10T00:05:23.383Z,0.00
2022-08-10T00:06:23.372Z,0.00
2022-08-10T00:07:23.377Z,0.00
2022-08-10T00:08:24.158Z,0.00
2022-08-10T00:09:23.427Z,0.00
2022-08-10T00:10:23.363Z,0.00
2022-08-10T00:11:23.389Z,0.00
2022-08-10T00:12:23.379Z,0.00
2022-08-10T00:13:23.394Z,0.00
2022-08-10T00:14:23.375Z,0.00
2022-08-10T00:15:53.165Z,0.00
2022-08-10T00:16:23.366Z,0.00
2022-08-10T00:17:23.335Z,0.00
2022-08-10T00:18:34.996Z,0.00
2022-08-10T00:19:23.342Z,0.00
2022-08-10T00:20:23.321Z,0.00
2022-08-10T00:21:23.326Z,0.00
2022-08-10T00:22:23.318Z,0.00
2022-08-10T00:23:23.318Z,0.00
2022-08-10T00:24:23.313Z,0.00
2022-08-10T00:25:23.310Z,0.00
2022-08-10T00:26:23.309Z,0.00
2022-08-10T00:28:01.318Z,0.00
2022-08-10T00:28:23.299Z,0.00
2022-08-10T00:29:23.298Z,0.00
2022-08-10T00:30:23.292Z,0.00
2022-08-10T00:31:23.288Z,0.00
2022-08-10T00:32:23.287Z,0.00
2022-08-10T00:33:23.282Z,0.00
2022-08-10T00:34:23.277Z,0.00
2022-08-10T00:35:23.277Z,0.00
2022-08-10T00:36:23.274Z,0.00
2022-08-10T00:37:23.268Z,0.00
2022-08-10T00:38:23.264Z,0.00
2022-08-10T00:39:23.282Z,0.00
2022-08-10T00:40:37.841Z,0.00
2022-08-10T00:41:23.268Z,0.00
2022-08-10T00:42:23.255Z,0.00
2022-08-10T00:43:24.144Z,0.00
2022-08-10T00:44:23.244Z,0.00
2022-08-10T00:45:23.244Z,0.00
2022-08-10T00:46:23.240Z,0.00
2022-08-10T00:47:37.281Z,0.00
2022-08-10T00:48:23.229Z,0.00
2022-08-10T00:49:23.223Z,0.00
2022-08-10T00:50:23.219Z,0.00
2022-08-10T00:51:23.217Z,0.00
2022-08-10T00:52:23.219Z,0.00
2022-08-10T00:53:23.211Z,0.00
2022-08-10T00:54:24.430Z,0.00
2022-08-10T00:55:23.203Z,0.00
2022-08-10T00:57:12.373Z,0.00
2022-08-10T00:57:23.195Z,0.00
2022-08-10T00:58:23.197Z,0.00
2022-08-10T00:59:23.184Z,0.00
2022-08-10T01:00:23.186Z,0.00
2022-08-10T01:02:09.565Z,0.00
2022-08-10T01:02:23.230Z,0.00
2022-08-10T01:04:40.052Z,0.00
2022-08-10T01:04:54.658Z,0.00
2022-08-10T01:05:23.168Z,0.00
2022-08-10T01:06:23.162Z,0.00
2022-08-10T01:07:23.161Z,0.00
2022-08-10T01:08:23.159Z,0.00
2022-08-10T01:09:23.149Z,0.00
2022-08-10T01:10:23.147Z,0.00
2022-08-10T01:11:42.347Z,0.00
2022-08-10T01:12:39.043Z,0.00
2022-08-10T01:13:23.213Z,0.00
2022-08-10T01:14:23.131Z,0.00
2022-08-10T01:15:23.131Z,0.00
2022-08-10T01:16:23.123Z,0.00
2022-08-10T01:17:23.126Z,0.00
2022-08-10T01:18:23.112Z,0.00
2022-08-10T01:19:23.115Z,0.00
2022-08-10T01:20:30.323Z,0.00
2022-08-10T01:21:23.106Z,0.00
2022-08-10T01:22:23.100Z,0.00
2022-08-10T01:23:23.097Z,0.00
2022-08-10T01:24:23.223Z,0.00
2022-08-10T01:25:23.090Z,0.00
2022-08-10T01:26:31.035Z,0.00
2022-08-10T01:27:26.954Z,0.00
2022-08-10T01:28:23.076Z,0.00
2022-08-10T01:29:23.071Z,0.00
2022-08-10T01:30:23.066Z,0.00
2022-08-10T01:31:23.071Z,0.00
2022-08-10T01:32:23.058Z,0.00
2022-08-10T01:35:18.097Z,0.00
2022-08-10T01:35:55.184Z,0.00
2022-08-10T01:36:55.179Z,0.00
2022-08-10T01:37:55.176Z,0.00
2022-08-10T01:38:55.182Z,0.00
2022-08-10T01:39:55.251Z,0.00
2022-08-10T01:40:55.162Z,0.00
2022-08-10T01:41:55.159Z,0.00
2022-08-10T01:42:55.155Z,0.00
2022-08-10T01:43:55.154Z,0.00
2022-08-10T01:44:55.148Z,0.00
2022-08-10T01:45:55.146Z,0.00
2022-08-10T01:46:56.923Z,0.00
2022-08-10T01:47:55.147Z,0.00
2022-08-10T01:48:55.132Z,0.00
2022-08-10T01:49:55.127Z,0.00
2022-08-10T01:50:59.814Z,0.00
2022-08-10T01:51:55.121Z,0.00
2022-08-10T01:52:55.116Z,0.00
2022-08-10T01:53:55.110Z,0.00
2022-08-10T01:54:56.125Z,0.00
2022-08-10T01:55:55.112Z,0.00
2022-08-10T01:56:55.102Z,0.00
2022-08-10T01:57:55.097Z,0.00
2022-08-10T01:58:55.091Z,0.00
2022-08-10T02:00:02.086Z,0.00
2022-08-10T02:00:55.135Z,0.00
2022-08-10T02:01:55.078Z,0.00
2022-08-10T02:02:55.075Z,0.00
2022-08-10T02:04:03.702Z,0.00
2022-08-10T02:04:55.068Z,0.00
2022-08-10T02:05:55.078Z,0.00
2022-08-10T02:06:55.063Z,0.00
2022-08-10T02:07:55.053Z,0.00
2022-08-10T02:08:55.832Z,0.00
2022-08-10T02:09:55.047Z,0.00
2022-08-10T02:10:55.040Z,0.00
2022-08-10T02:12:07.784Z,0.00
2022-08-10T02:12:55.030Z,0.00
2022-08-10T02:13:55.028Z,0.00
2022-08-10T02:14:55.026Z,0.00
2022-08-10T02:16:01.146Z,0.00
2022-08-10T02:16:55.016Z,0.00
2022-08-10T02:18:00.526Z,0.00
2022-08-10T02:18:55.007Z,0.00
2022-08-10T02:19:55.001Z,0.00
2022-08-10T02:20:55.003Z,0.00
2022-08-10T02:22:35.124Z,0.00
2022-08-10T02:22:54.990Z,0.00
2022-08-10T02:23:59.619Z,0.00
2022-08-10T02:24:54.984Z,0.00
2022-08-10T02:25:54.980Z,0.00
2022-08-10T02:26:56.435Z,0.00
2022-08-10T02:27:54.966Z,0.00
2022-08-10T02:28:54.966Z,0.00
2022-08-10T02:29:54.965Z,0.00
2022-08-10T02:30:54.954Z,0.00
2022-08-10T02:31:54.949Z,0.00
2022-08-10T02:32:54.946Z,0.00
2022-08-10T02:33:57.439Z,0.00
2022-08-10T02:34:54.939Z,0.00
2022-08-10T02:35:55.871Z,0.00
2022-08-10T02:36:54.930Z,0.00
2022-08-10T02:37:54.926Z,0.00
2022-08-10T02:38:58.874Z,0.00
2022-08-10T02:39:54.914Z,0.00
2022-08-10T02:45:01.952Z,0.00
2022-08-10T02:45:14.711Z,0.00
2022-08-10T02:45:18.652Z,0.00
2022-08-10T02:45:21.963Z,0.00
2022-08-10T02:45:29.430Z,0.00
2022-08-10T02:45:54.890Z,0.00
2022-08-10T02:46:54.885Z,0.00
2022-08-10T02:47:54.884Z,0.00
2022-08-10T02:48:54.875Z,0.00
2022-08-10T02:49:54.870Z,0.00
2022-08-10T02:50:54.868Z,0.00
2022-08-10T02:52:07.971Z,0.00
2022-08-10T02:52:54.858Z,0.00
2022-08-10T02:53:57.247Z,0.00
2022-08-10T02:54:54.849Z,0.00
2022-08-10T02:55:54.844Z,0.00
2022-08-10T02:56:54.850Z,0.00
2022-08-10T02:58:16.922Z,0.00
2022-08-10T02:58:54.830Z,0.00
2022-08-10T02:59:54.829Z,0.00
2022-08-10T03:00:54.898Z,0.00
2022-08-10T03:01:54.816Z,0.00
2022-08-10T03:02:54.817Z,0.00
2022-08-10T03:03:54.810Z,0.00
2022-08-10T03:04:57.742Z,0.00
2022-08-10T03:05:54.802Z,0.00
2022-08-10T03:06:54.793Z,0.00
2022-08-10T03:07:54.787Z,0.00
2022-08-10T03:08:54.789Z,0.00
2022-08-10T03:09:54.794Z,0.00
2022-08-10T03:10:54.779Z,0.00
2022-08-10T03:12:35.282Z,0.00
2022-08-10T03:12:55.038Z,0.00
2022-08-10T03:13:59.845Z,0.00
2022-08-10T03:14:54.760Z,0.00
2022-08-10T03:15:54.751Z,0.00
2022-08-10T03:16:54.748Z,0.00
2022-08-10T03:17:57.755Z,0.00
2022-08-10T03:18:54.747Z,0.00
2022-08-10T03:20:35.737Z,0.00
2022-08-10T03:20:54.732Z,0.00
2022-08-10T03:21:54.727Z,0.00
2022-08-10T03:22:54.723Z,0.00
2022-08-10T03:23:54.711Z,0.00
2022-08-10T03:24:54.712Z,0.00
2022-08-10T03:25:55.054Z,0.00
2022-08-10T03:26:54.702Z,0.00
2022-08-10T03:27:54.698Z,0.00
2022-08-10T03:28:54.696Z,0.00
2022-08-10T03:30:28.522Z,0.00
2022-08-10T03:30:54.738Z,0.00
2022-08-10T03:31:54.679Z,0.00
2022-08-10T03:32:54.677Z,0.00
2022-08-10T03:33:54.671Z,5.63
2022-08-10T03:34:54.667Z,5.63
2022-08-10T03:36:41.691Z,5.63
2022-08-10T03:36:54.656Z,5.63
2022-08-10T03:37:59.238Z,5.63
2022-08-10T03:38:54.649Z,5.63
2022-08-10T03:39:54.643Z,5.63
2022-08-10T03:40:54.638Z,5.63
2022-08-10T03:41:54.634Z,5.63
2022-08-10T03:42:54.629Z,5.63
2022-08-10T03:43:54.626Z,11.25
2022-08-10T03:44:54.619Z,11.25
2022-08-10T03:45:56.482Z,11.25
2022-08-10T03:46:54.611Z,11.25
2022-08-10T03:47:54.605Z,11.25
2022-08-10T03:48:54.600Z,11.25
2022-08-10T03:49:54.596Z,16.88
2022-08-10T03:50:54.592Z,16.88
2022-08-10T03:51:54.586Z,16.88
2022-08-10T03:52:54.578Z,16.88
2022-08-10T03:54:02.930Z,16.88
2022-08-10T03:54:54.572Z,22.50
2022-08-10T03:56:30.495Z,22.50
2022-08-10T03:56:54.564Z,22.50
2022-08-10T03:57:54.558Z,22.50
2022-08-10T03:58:54.556Z,22.50
2022-08-10T03:59:54.545Z,28.13
2022-08-10T04:00:54.602Z,28.13
2022-08-10T04:02:44.141Z,28.13
2022-08-10T04:02:54.773Z,28.13
2022-08-10T04:04:11.550Z,28.13
2022-08-10T04:04:54.524Z,33.75
2022-08-10T04:05:54.530Z,33.75
2022-08-10T04:06:55.388Z,33.75
2022-08-10T04:07:54.512Z,39.38
2022-08-10T04:08:54.505Z,39.38
2022-08-10T04:09:56.420Z,45.00
2022-08-10T04:10:54.496Z,45.00
2022-08-10T04:11:54.489Z,50.63
2022-08-10T04:12:54.489Z,50.63
2022-08-10T04:13:54.480Z,50.63
2022-08-10T04:14:54.477Z,50.63
2022-08-10T04:15:54.470Z,50.63
2022-08-10T04:16:54.469Z,56.25
2022-08-10T04:18:05.115Z,56.25
2022-08-10T04:18:54.466Z,61.88
2022-08-10T04:19:54.449Z,61.88
2022-08-10T04:20:54.446Z,61.88
2022-08-10T04:21:54.447Z,61.88
2022-08-10T04:22:54.436Z,67.50
2022-08-10T04:23:54.435Z,67.50
2022-08-10T04:24:54.423Z,67.50
2022-08-10T04:25:54.420Z,73.13
2022-08-10T04:26:54.419Z,73.13
2022-08-10T04:27:54.411Z,78.75
2022-08-10T04:28:54.408Z,90.00
2022-08-10T04:29:54.400Z,95.63
2022-08-10T04:30:54.396Z,95.63
2022-08-10T04:31:54.396Z,101.25
2022-08-10T04:32:54.392Z,106.88
2022-08-10T04:33:54.384Z,106.88
2022-08-10T04:34:54.377Z,112.50
2022-08-10T04:35:54.375Z,118.13
2022-08-10T04:36:54.379Z,123.75
2022-08-10T04:37:54.362Z,129.38
2022-08-10T04:38:54.358Z,135.00
2022-08-10T04:39:54.354Z,140.63
2022-08-10T04:40:54.348Z,151.88
2022-08-10T04:41:54.339Z,163.13
2022-08-10T04:42:54.336Z,180.00
2022-08-10T04:43:54.334Z,196.88
2022-08-10T04:44:54.328Z,219.38
2022-08-10T04:45:54.327Z,236.25
2022-08-10T04:46:58.552Z,247.50
2022-08-10T04:48:00.544Z,253.13
2022-08-10T04:49:01.611Z,253.13
2022-08-10T04:49:56.882Z,253.13
2022-08-10T04:50:54.298Z,264.38
2022-08-10T04:51:54.429Z,270.00
2022-08-10T04:52:54.303Z,275.63
2022-08-10T04:54:05.454Z,281.25
2022-08-10T04:54:54.284Z,286.88
2022-08-10T04:55:54.280Z,286.88
2022-08-10T04:56:54.275Z,292.50
2022-08-10T04:57:54.270Z,292.50
2022-08-10T04:58:54.271Z,292.50
2022-08-10T04:59:54.257Z,298.13
2022-08-10T05:00:54.443Z,298.13
2022-08-10T05:02:22.435Z,303.75
2022-08-10T05:02:54.248Z,303.75
2022-08-10T05:04:37.304Z,309.38
2022-08-10T05:04:54.242Z,315.00
2022-08-10T05:05:54.245Z,315.00
2022-08-10T05:06:54.235Z,320.63
2022-08-10T05:07:56.959Z,320.63
2022-08-10T05:08:54.231Z,326.25
2022-08-10T05:10:01.597Z,326.25
2022-08-10T05:10:54.224Z,326.25
2022-08-10T05:11:54.216Z,326.25
2022-08-10T05:12:54.220Z,331.88
2022-08-10T05:13:54.212Z,326.25
2022-08-10T05:14:54.756Z,326.25
2022-08-10T05:15:54.202Z,331.88
2022-08-10T05:16:54.202Z,326.25
2022-08-10T05:18:06.845Z,326.25
2022-08-10T05:18:54.195Z,331.88
2022-08-10T05:20:03.718Z,331.88
2022-08-10T05:20:54.189Z,331.88
2022-08-10T05:22:03.755Z,331.88
2022-08-10T05:22:54.186Z,331.88
2022-08-10T05:23:54.181Z,337.50
2022-08-10T05:24:54.179Z,337.50
2022-08-10T05:25:54.181Z,337.50
2022-08-10T05:27:00.279Z,337.50
2022-08-10T05:27:57.480Z,337.50
2022-08-10T05:28:54.172Z,337.50
2022-08-10T05:30:01.802Z,343.13
2022-08-10T05:30:54.163Z,348.75
2022-08-10T05:31:54.165Z,348.75
2022-08-10T05:32:59.157Z,354.38
2022-08-10T05:33:54.166Z,354.38
2022-08-10T05:34:54.165Z,354.38
2022-08-10T05:35:57.844Z,360.00
2022-08-10T05:36:54.154Z,354.38
2022-08-10T05:38:12.019Z,315.00
2022-08-10T05:38:54.153Z,309.38
2022-08-10T05:39:54.186Z,286.88
2022-08-10T05:40:54.155Z,281.25
2022-08-10T05:41:54.139Z,270.00
2022-08-10T05:42:54.144Z,264.38
2022-08-10T05:43:54.142Z,270.00
2022-08-10T05:44:54.152Z,281.25
2022-08-10T05:46:17.006Z,298.13
2022-08-10T05:46:54.138Z,303.75
2022-08-10T05:48:54.290Z,337.50
2022-08-10T05:49:00.006Z,348.75
2022-08-10T05:49:54.132Z,343.13
2022-08-10T05:50:54.136Z,365.63
2022-08-10T05:51:54.133Z,371.25
2022-08-10T05:52:54.131Z,388.13
2022-08-10T05:54:00.956Z,399.38
2022-08-10T05:54:54.126Z,421.88
2022-08-10T05:55:54.126Z,466.88
2022-08-10T05:56:58.087Z,630.00
2022-08-10T05:57:54.122Z,855.00
2022-08-10T05:58:54.142Z,956.25
2022-08-10T06:00:10.686Z,1068.75
2022-08-10T06:00:54.276Z,1215.00
2022-08-10T06:02:31.681Z,1344.38
2022-08-10T06:02:54.118Z,1417.50
2022-08-10T06:03:54.115Z,1372.50
2022-08-10T06:04:54.117Z,1237.50
2022-08-10T06:05:54.128Z,1198.13
2022-08-10T06:06:54.120Z,1243.13
2022-08-10T06:07:54.112Z,1254.38
2022-08-10T06:08:54.116Z,950.63
2022-08-10T06:09:59.910Z,1063.13
2022-08-10T06:12:26.566Z,1192.50
2022-08-10T06:12:28.404Z,1063.13
2022-08-10T06:12:56.644Z,1243.13
2022-08-10T06:14:13.137Z,1479.38
2022-08-10T06:14:59.774Z,1614.38
2022-08-10T06:15:54.112Z,1642.50
2022-08-10T06:16:54.113Z,1620.00
2022-08-10T06:18:01.815Z,1490.63
2022-08-10T06:18:54.114Z,1451.25
2022-08-10T06:19:54.122Z,1451.25
2022-08-10T06:20:54.115Z,1445.63
2022-08-10T06:22:01.155Z,1524.38
2022-08-10T06:22:54.116Z,1321.88
2022-08-10T06:23:54.113Z,1687.50
2022-08-10T06:25:21.748Z,1715.63
2022-08-10T06:26:12.027Z,1608.75
2022-08-10T06:26:54.117Z,1546.88
2022-08-10T06:27:54.116Z,1530.00
2022-08-10T06:29:02.638Z,1040.63
2022-08-10T06:29:54.123Z,1299.38
2022-08-10T06:30:54.121Z,1411.88
2022-08-10T06:31:54.120Z,1800.00
2022-08-10T06:32:54.125Z,1513.13
2022-08-10T06:33:54.123Z,1710.00
2022-08-10T06:34:54.124Z,1659.38
2022-08-10T06:35:54.131Z,1636.88
2022-08-10T06:36:54.297Z,1721.25
2022-08-10T06:37:54.128Z,1670.63
2022-08-10T06:38:54.377Z,1530.00
2022-08-10T06:39:54.165Z,1395.00
2022-08-10T06:40:54.132Z,1501.88
2022-08-10T06:42:14.307Z,1563.75
2022-08-10T06:42:54.135Z,1805.63
2022-08-10T06:43:54.135Z,1811.25
2022-08-10T06:44:54.140Z,1850.63
2022-08-10T06:46:07.423Z,1839.38
2022-08-10T06:46:54.142Z,1777.50
2022-08-10T06:47:54.143Z,1749.38
2022-08-10T06:48:54.146Z,1788.75
2022-08-10T06:49:54.145Z,1884.38
2022-08-10T06:50:57.920Z,1985.63
2022-08-10T06:51:57.013Z,2047.50
2022-08-10T06:52:54.152Z,2030.63
2022-08-10T06:53:55.236Z,1951.88
2022-08-10T06:54:54.157Z,2098.13
2022-08-10T06:55:56.407Z,2216.25
2022-08-10T06:57:16.482Z,2205.00
2022-08-10T06:57:59.677Z,1946.25
2022-08-10T06:58:54.165Z,1968.75
2022-08-10T06:59:54.165Z,1653.75
2022-08-10T07:00:54.242Z,1698.75
2022-08-10T07:01:54.240Z,1603.13
2022-08-10T07:02:54.172Z,1591.88
2022-08-10T07:03:54.174Z,1743.75
2022-08-10T07:04:54.177Z,2013.75
2022-08-10T07:05:54.181Z,2221.88
2022-08-10T07:06:54.190Z,2368.13
2022-08-10T07:07:54.187Z,2441.25
2022-08-10T07:08:54.188Z,2441.25
2022-08-10T07:09:54.187Z,2300.63
2022-08-10T07:10:54.190Z,2278.13
2022-08-10T07:11:54.188Z,2390.63
2022-08-10T07:12:54.199Z,2328.75
2022-08-10T07:14:15.696Z,2160.00
2022-08-10T07:14:54.199Z,2120.63
2022-08-10T07:15:59.745Z,2047.50
2022-08-10T07:16:54.207Z,2115.00
2022-08-10T07:17:54.207Z,1918.13
2022-08-10T07:18:54.210Z,2216.25
2022-08-10T07:19:54.212Z,2368.13
2022-08-10T07:20:54.216Z,2340.00
2022-08-10T07:21:57.899Z,2295.00
2022-08-10T07:23:08.239Z,2317.50
2022-08-10T07:23:59.208Z,2525.63
2022-08-10T07:24:54.225Z,2570.63
2022-08-10T07:25:54.230Z,2565.00
2022-08-10T07:26:54.232Z,2531.25
2022-08-10T07:27:58.675Z,2610.00
2022-08-10T07:28:54.239Z,2722.50
2022-08-10T07:29:54.903Z,2863.13
2022-08-10T07:30:54.244Z,3009.38
2022-08-10T07:31:57.201Z,3037.50
2022-08-10T07:32:54.252Z,2958.75
2022-08-10T07:33:54.254Z,2863.13
2022-08-10T07:34:54.260Z,2835.00
2022-08-10T07:35:54.260Z,2801.25
2022-08-10T07:36:54.265Z,2711.25
2022-08-10T07:37:54.268Z,2626.88
2022-08-10T07:38:54.273Z,2615.63
2022-08-10T07:40:02.645Z,2677.50
2022-08-10T07:40:54.279Z,2823.75
2022-08-10T07:41:54.286Z,2902.50
2022-08-10T07:42:54.289Z,2829.38
2022-08-10T07:43:54.291Z,2784.38
2022-08-10T07:44:54.296Z,2610.00
2022-08-10T07:45:54.305Z,2553.75
2022-08-10T07:46:54.302Z,2598.75
2022-08-10T07:47:54.979Z,2745.00
2022-08-10T07:48:54.316Z,2756.25
2022-08-10T07:49:54.316Z,2604.38
2022-08-10T07:50:54.320Z,2446.88
2022-08-10T07:51:55.143Z,2373.75
2022-08-10T07:52:54.328Z,2413.13
2022-08-10T07:53:54.344Z,2531.25
2022-08-10T07:54:54.334Z,2632.50
2022-08-10T07:56:04.730Z,2671.88
2022-08-10T07:56:54.341Z,2958.75
2022-08-10T07:57:54.349Z,3150.00
2022-08-10T07:58:54.353Z,3172.50
2022-08-10T07:59:54.370Z,3071.25
2022-08-10T08:00:54.363Z,2908.13
2022-08-10T08:01:54.448Z,2767.50
2022-08-10T08:02:54.370Z,2688.75
2022-08-10T08:04:05.417Z,3088.13
2022-08-10T08:04:54.381Z,3105.00
2022-08-10T08:06:02.701Z,2970.00
2022-08-10T08:06:54.388Z,2216.25
2022-08-10T08:07:54.393Z,3065.63
2022-08-10T08:08:54.398Z,2986.88
2022-08-10T08:09:57.626Z,3026.25
2022-08-10T08:10:54.411Z,3071.25
2022-08-10T08:11:54.412Z,3088.13
2022-08-10T08:12:54.416Z,3150.00
2022-08-10T08:13:54.424Z,2193.75
2022-08-10T08:14:54.428Z,1355.63
2022-08-10T08:16:18.481Z,1119.38
2022-08-10T08:16:54.435Z,225.00
2022-08-10T08:17:59.764Z,196.88
2022-08-10T08:19:23.956Z,191.25
2022-08-10T08:19:55.606Z,208.13
2022-08-10T08:20:54.466Z,196.88
2022-08-10T08:24:04.979Z,180.00
2022-08-10T08:24:05.581Z,180.00
2022-08-10T08:24:06.969Z,185.63
2022-08-10T08:24:54.468Z,174.38
2022-08-10T08:25:54.471Z,168.75
2022-08-10T08:26:54.475Z,168.75
2022-08-10T08:27:54.478Z,168.75
2022-08-10T08:28:54.479Z,168.75
2022-08-10T08:29:54.482Z,168.75
2022-08-10T08:30:54.485Z,168.75
2022-08-10T08:32:01.920Z,163.13
2022-08-10T08:32:54.489Z,163.13
2022-08-10T08:33:54.492Z,163.13
2022-08-10T08:34:54.491Z,157.50
2022-08-10T08:35:54.494Z,157.50
2022-08-10T08:36:59.213Z,157.50
2022-08-10T08:38:29.506Z,157.50
2022-08-10T08:38:54.505Z,157.50
2022-08-10T08:39:54.501Z,157.50
2022-08-10T08:40:54.501Z,157.50
2022-08-10T08:41:54.508Z,157.50
2022-08-10T08:42:54.509Z,157.50
2022-08-10T08:43:54.513Z,157.50
2022-08-10T08:44:54.507Z,157.50
2022-08-10T08:46:01.542Z,157.50
2022-08-10T08:46:59.287Z,157.50
2022-08-10T08:48:05.514Z,163.13
2022-08-10T08:48:54.512Z,180.00
2022-08-10T08:50:08.982Z,258.75
2022-08-10T08:50:57.559Z,343.13
2022-08-10T08:52:09.419Z,202.50
2022-08-10T08:52:54.518Z,180.00
2022-08-10T08:54:02.934Z,151.88
2022-08-10T08:54:54.522Z,151.88
2022-08-10T08:56:05.421Z,146.25
2022-08-10T08:56:54.521Z,146.25
2022-08-10T08:57:54.521Z,146.25
2022-08-10T08:58:54.524Z,146.25
2022-08-10T08:59:54.523Z,146.25
2022-08-10T09:00:54.523Z,146.25
2022-08-10T09:01:54.604Z,146.25
2022-08-10T09:02:55.113Z,174.38
2022-08-10T09:03:54.525Z,174.38
2022-08-10T09:04:54.523Z,157.50
2022-08-10T09:06:00.199Z,151.88
2022-08-10T09:06:54.525Z,151.88
2022-08-10T09:08:02.320Z,146.25
2022-08-10T09:08:54.525Z,146.25
2022-08-10T09:09:54.529Z,146.25
2022-08-10T09:10:54.527Z,146.25
2022-08-10T09:11:54.537Z,146.25
2022-08-10T09:12:54.554Z,146.25
2022-08-10T09:13:54.526Z,146.25
2022-08-10T09:14:54.523Z,146.25
2022-08-10T09:15:57.478Z,146.25
2022-08-10T09:16:54.528Z,146.25
2022-08-10T09:17:54.528Z,146.25
2022-08-10T09:18:54.530Z,140.63
2022-08-10T09:19:54.530Z,140.63
2022-08-10T09:20:54.529Z,140.63
2022-08-10T09:22:13.443Z,140.63
2022-08-10T09:22:57.413Z,140.63
2022-08-10T09:24:05.380Z,140.63
2022-08-10T09:24:54.528Z,140.63
2022-08-10T09:25:54.531Z,140.63
2022-08-10T09:26:54.536Z,140.63
2022-08-10T09:27:54.534Z,140.63
2022-08-10T09:29:11.483Z,135.00
2022-08-10T09:29:54.535Z,135.00
2022-08-10T09:31:21.010Z,135.00
2022-08-10T09:33:05.382Z,135.00
2022-08-10T09:36:16.604Z,135.00
2022-08-10T09:36:24.600Z,135.00
2022-08-10T09:36:25.758Z,135.00
2022-08-10T09:36:29.788Z,135.00
2022-08-10T09:36:54.539Z,135.00
2022-08-10T09:38:02.327Z,135.00
2022-08-10T09:38:54.543Z,135.00
2022-08-10T09:40:56.325Z,135.00
2022-08-10T09:41:01.159Z,135.00
2022-08-10T09:41:54.540Z,135.00
2022-08-10T09:43:21.603Z,135.00
2022-08-10T09:43:54.539Z,135.00
2022-08-10T09:44:57.401Z,135.00
2022-08-10T09:45:54.539Z,140.63
2022-08-10T09:46:54.541Z,140.63
2022-08-10T09:48:02.111Z,140.63
2022-08-10T09:48:54.543Z,146.25
2022-08-10T09:49:56.396Z,146.25
2022-08-10T09:51:54.545Z,146.25
2022-08-10T09:52:58.935Z,151.88
2022-08-10T09:53:54.544Z,151.88
2022-08-10T09:54:54.542Z,151.88
2022-08-10T09:56:17.410Z,151.88
2022-08-10T09:57:03.079Z,151.88
2022-08-10T09:57:55.003Z,151.88
2022-08-10T09:59:26.574Z,151.88
2022-08-10T10:00:01.522Z,151.88
2022-08-10T10:00:54.546Z,151.88
2022-08-10T10:02:02.651Z,151.88
2022-08-10T10:02:54.598Z,151.88
2022-08-10T10:03:54.566Z,151.88
2022-08-10T10:04:54.546Z,146.25
2022-08-10T10:05:54.547Z,140.63
2022-08-10T10:06:54.547Z,140.63
2022-08-10T10:07:54.550Z,135.00
2022-08-10T10:08:58.461Z,135.00
2022-08-10T10:09:54.547Z,135.00
2022-08-10T10:10:54.548Z,135.00
2022-08-10T10:11:54.547Z,135.00
2022-08-10T10:12:54.552Z,135.00
2022-08-10T10:14:03.737Z,135.00
2022-08-10T10:14:54.549Z,135.00
2022-08-10T10:15:54.549Z,135.00
2022-08-10T10:16:54.553Z,135.00
2022-08-10T10:17:54.551Z,135.00
2022-08-10T10:18:54.565Z,135.00
2022-08-10T10:19:54.547Z,135.00
2022-08-10T10:20:54.552Z,135.00
2022-08-10T10:21:56.609Z,135.00
2022-08-10T10:22:54.547Z,135.00
2022-08-10T10:24:21.640Z,135.00
2022-08-10T10:24:54.563Z,135.00
2022-08-10T10:25:57.768Z,135.00
2022-08-10T10:26:54.557Z,135.00
2022-08-10T10:27:54.553Z,135.00
2022-08-10T10:29:56.675Z,135.00
2022-08-10T10:30:54.555Z,135.00
2022-08-10T10:31:54.562Z,135.00
2022-08-10T10:32:57.799Z,135.00
2022-08-10T10:33:54.561Z,135.00
2022-08-10T10:34:54.558Z,135.00
2022-08-10T10:35:54.557Z,135.00
2022-08-10T10:36:54.559Z,135.00
2022-08-10T10:38:01.103Z,135.00
2022-08-10T10:38:54.564Z,135.00
2022-08-10T10:39:54.631Z,135.00
2022-08-10T10:40:54.580Z,135.00
2022-08-10T10:42:03.175Z,135.00
2022-08-10T10:42:54.561Z,135.00
2022-08-10T10:43:54.575Z,135.00
2022-08-10T10:44:54.562Z,135.00
2022-08-10T10:45:54.565Z,135.00
2022-08-10T10:46:54.563Z,135.00
2022-08-10T10:47:54.566Z,135.00
2022-08-10T10:48:54.563Z,135.00
2022-08-10T10:49:54.564Z,135.00
2022-08-10T10:50:54.573Z,135.00
2022-08-10T10:51:54.578Z,135.00
2022-08-10T10:52:54.570Z,135.00
2022-08-10T10:53:54.575Z,135.00
2022-08-10T10:54:54.581Z,135.00
2022-08-10T10:56:15.105Z,135.00
2022-08-10T10:56:54.572Z,135.00
2022-08-10T10:58:00.466Z,135.00
2022-08-10T10:58:54.589Z,135.00
2022-08-10T10:59:57.619Z,135.00
2022-08-10T11:00:54.589Z,135.00
2022-08-10T11:01:54.582Z,135.00
2022-08-10T11:02:54.608Z,135.00
2022-08-10T11:03:54.598Z,135.00
2022-08-10T11:04:57.347Z,135.00
2022-08-10T11:05:54.587Z,135.00
2022-08-10T11:06:54.594Z,135.00
2022-08-10T11:07:54.943Z,135.00
2022-08-10T11:08:54.597Z,135.00
2022-08-10T11:10:09.664Z,135.00
2022-08-10T11:10:54.577Z,135.00
2022-08-10T11:12:02.160Z,135.00
2022-08-10T11:12:54.579Z,135.00
2022-08-10T11:14:28.537Z,135.00
2022-08-10T11:14:54.582Z,135.00
2022-08-10T11:15:54.583Z,135.00
2022-08-10T11:16:57.162Z,135.00
2022-08-10T11:17:54.601Z,135.00
2022-08-10T11:18:54.618Z,135.00
2022-08-10T11:20:02.924Z,135.00
2022-08-10T11:20:54.585Z,135.00
2022-08-10T11:21:54.601Z,135.00
2022-08-10T11:22:54.591Z,135.00
2022-08-10T11:24:49.018Z,135.00
2022-08-10T11:24:54.590Z,135.00
2022-08-10T11:25:54.591Z,135.00
2022-08-10T11:26:54.613Z,135.00
2022-08-10T11:27:54.616Z,135.00
2022-08-10T11:28:54.613Z,135.00
2022-08-10T11:29:54.596Z,135.00
2022-08-10T11:30:54.595Z,135.00
2022-08-10T11:31:54.609Z,135.00
2022-08-10T11:32:54.631Z,135.00
2022-08-10T11:34:46.269Z,135.00
2022-08-10T11:35:10.524Z,135.00
2022-08-10T11:35:54.609Z,135.00
2022-08-10T11:36:54.602Z,135.00
2022-08-10T11:38:31.669Z,135.00
2022-08-10T11:39:13.495Z,135.00
2022-08-10T11:39:54.666Z,135.00
2022-08-10T11:40:54.624Z,135.00
2022-08-10T11:42:09.302Z,135.00
2022-08-10T11:42:54.608Z,135.00
2022-08-10T11:43:54.611Z,135.00
2022-08-10T11:44:54.614Z,135.00
2022-08-10T11:45:55.556Z,135.00
2022-08-10T11:46:54.637Z,135.00
2022-08-10T11:47:54.626Z,135.00
2022-08-10T11:48:57.038Z,135.00
2022-08-10T11:49:54.640Z,135.00
2022-08-10T11:50:54.630Z,135.00
2022-08-10T11:51:54.621Z,135.00
2022-08-10T11:52:54.636Z,135.00
2022-08-10T11:53:54.619Z,135.00
2022-08-10T11:54:54.629Z,135.00
2022-08-10T11:55:54.622Z,135.00
2022-08-10T11:56:58.457Z,135.00
2022-08-10T11:57:55.671Z,135.00
2022-08-10T11:58:54.645Z,135.00
2022-08-10T11:59:58.146Z,135.00
2022-08-10T12:00:54.621Z,135.00
2022-08-10T12:01:54.657Z,135.00
2022-08-10T12:02:54.659Z,135.00
2022-08-10T12:03:54.632Z,135.00
2022-08-10T12:04:54.652Z,135.00
2022-08-10T12:05:55.408Z,135.00
2022-08-10T12:06:56.238Z,135.00
2022-08-10T12:10:06.240Z,135.00
2022-08-10T12:10:09.094Z,135.00
2022-08-10T12:10:10.475Z,135.00
2022-08-10T12:10:54.641Z,135.00
2022-08-10T12:11:54.661Z,135.00
2022-08-10T12:12:54.662Z,135.00
2022-08-10T12:14:19.753Z,135.00
2022-08-10T12:14:54.650Z,135.00
2022-08-10T12:15:54.663Z,135.00
2022-08-10T12:16:54.669Z,135.00
2022-08-10T12:17:54.670Z,135.00
2022-08-10T12:18:54.667Z,135.00
2022-08-10T12:19:59.835Z,135.00
2022-08-10T12:20:54.655Z,135.00
2022-08-10T12:21:54.680Z,135.00
2022-08-10T12:22:54.672Z,135.00
2022-08-10T12:24:02.440Z,135.00
2022-08-10T12:24:54.659Z,135.00
2022-08-10T12:25:56.348Z,135.00
2022-08-10T12:26:54.662Z,135.00
2022-08-10T12:27:54.684Z,135.00
2022-08-10T12:28:54.667Z,135.00
2022-08-10T12:29:54.686Z,135.00
2022-08-10T12:30:54.669Z,135.00
2022-08-10T12:31:54.684Z,135.00
2022-08-10T12:32:54.669Z,135.00
2022-08-10T12:34:01.191Z,135.00
2022-08-10T12:34:54.679Z,135.00
2022-08-10T12:36:16.863Z,135.00
2022-08-10T12:36:54.676Z,135.00
2022-08-10T12:37:54.675Z,135.00
2022-08-10T12:38:54.706Z,135.00
2022-08-10T12:40:06.930Z,140.63
2022-08-10T12:40:54.689Z,140.63
2022-08-10T12:41:54.703Z,140.63
2022-08-10T12:43:01.600Z,140.63